Time;durP1;ratioP1;P1;durP2;ratioP2;P2;SDS_P1;SDS_P2;PMS_P1;PMS_P2;Temp;Humidity;BMP_temperature;BMP_pressure;BME280_temperature;BME280_humidity;BME280_pressure;Samples;Min_cycle;Max_cycle;Signal;HPM_P1;HPM_P2
2022/01/03 00:00:58;;;;;;;17.67;15.83;;;10.60;99.90;;;;;;4994455;28;20468;-79
2022/01/03 00:03:25;;;;;;;23.50;14.23;;;10.60;99.90;;;;;;4994846;28;20489;-79
2022/01/03 00:05:52;;;;;;;13.93;12.57;;;10.80;99.90;;;;;;4994952;28;20453;-78
2022/01/03 00:08:20;;;;;;;21.07;17.33;;;10.70;99.90;;;;;;4994480;28;20454;-79
2022/01/03 00:10:48;;;;;;;22.43;11.83;;;10.80;99.90;;;;;;4994925;28;20457;-79
2022/01/03 00:13:15;;;;;;;17.10;15.30;;;10.90;99.90;;;;;;4997041;28;20489;-79
2022/01/03 00:15:42;;;;;;;22.47;13.97;;;10.90;99.90;;;;;;4997957;28;20446;-79
2022/01/03 00:18:11;;;;;;;25.57;13.60;;;10.90;99.90;;;;;;4997999;28;20465;-77
2022/01/03 00:20:40;;;;;;;29.33;26.57;;;10.70;99.90;;;;;;4997367;28;20454;-79
2022/01/03 00:23:08;;;;;;;40.63;37.57;;;10.60;99.90;;;;;;4998146;28;20485;-80
2022/01/03 00:25:37;;;;;;;60.37;57.03;;;10.50;99.90;;;;;;4997512;28;20978;-78
2022/01/03 00:28:14;;;;;;;171.17;164.33;;;10.50;99.90;;;;;;4997889;28;20828;-79
2022/01/03 00:30:43;;;;;;;128.07;121.83;;;10.20;99.90;;;;;;4997670;28;20457;-79
2022/01/03 00:33:11;;;;;;;145.03;138.80;;;10.40;99.90;;;;;;4997749;28;20474;-79
2022/01/03 00:35:40;;;;;;;198.37;191.60;;;10.30;99.90;;;;;;4997402;28;20476;-79
2022/01/03 00:38:08;;;;;;;146.67;140.80;;;10.30;99.90;;;;;;4997394;28;20453;-76
2022/01/03 00:40:36;;;;;;;124.83;118.27;;;10.40;99.90;;;;;;4997648;28;20458;-79
2022/01/03 00:43:04;;;;;;;68.03;64.60;;;10.40;99.90;;;;;;4997475;28;20494;-79
2022/01/03 00:45:32;;;;;;;104.10;99.40;;;10.40;99.90;;;;;;4997442;28;20537;-80
2022/01/03 00:47:59;;;;;;;43.30;40.33;;;10.50;99.90;;;;;;4997667;28;20457;-79
2022/01/03 00:50:27;;;;;;;40.10;36.60;;;10.60;99.90;;;;;;4996973;28;20465;-79
2022/01/03 00:52:54;;;;;;;37.03;34.60;;;10.50;99.90;;;;;;4997204;28;20541;-80
2022/01/03 00:55:21;;;;;;;23.87;21.50;;;10.50;99.90;;;;;;4997702;28;20450;-79
2022/01/03 00:57:58;;;;;;;21.40;19.13;;;10.60;99.90;;;;;;4997133;28;20461;-79
2022/01/03 01:00:27;;;;;;;21.67;19.70;;;10.50;99.90;;;;;;4996786;28;20449;-79
2022/01/03 01:03:02;;;;;;;23.97;20.70;;;10.40;99.90;;;;;;4997058;28;20492;-79
2022/01/03 01:05:29;;;;;;;23.23;21.00;;;10.40;99.90;;;;;;4997155;28;20457;-80
2022/01/03 01:07:58;;;;;;;28.60;26.40;;;10.40;99.90;;;;;;4997380;28;20954;-79
2022/01/03 01:10:28;;;;;;;24.77;20.77;;;10.40;99.90;;;;;;4997029;28;20461;-79
2022/01/03 01:12:55;;;;;;;31.67;29.10;;;10.40;99.90;;;;;;4996558;28;20986;-79
2022/01/03 01:15:23;;;;;;;39.60;36.10;;;10.30;99.90;;;;;;4995919;28;20450;-79
2022/01/03 01:17:52;;;;;;;46.90;44.30;;;10.30;99.90;;;;;;4996651;28;20457;-79
2022/01/03 01:20:21;;;;;;;68.87;65.37;;;10.20;99.90;;;;;;4995766;28;20450;-79
2022/01/03 01:22:48;;;;;;;57.57;54.20;;;10.20;99.90;;;;;;4996679;28;20485;-79
2022/01/03 01:27:45;;;;;;;51.97;48.20;;;10.20;99.90;;;;;;4995370;28;20454;-79
2022/01/03 01:28:13;;;;;;;52.50;49.60;;;10.30;99.90;;;;;;4976574;28;20482;-79
2022/01/03 01:30:40;;;;;;;57.37;53.83;;;10.30;99.90;;;;;;4989632;28;20971;-80
2022/01/03 01:33:09;;;;;;;36.97;33.87;;;10.20;99.90;;;;;;4996841;28;20474;-79
2022/01/03 01:35:43;;;;;;;43.83;40.43;;;10.30;99.90;;;;;;4996163;28;20835;-79
2022/01/03 01:38:13;;;;;;;39.33;37.07;;;10.30;99.90;;;;;;4996443;28;20469;-79
2022/01/03 01:40:46;;;;;;;31.70;29.53;;;10.40;99.90;;;;;;4996227;28;20450;-79
2022/01/03 01:43:14;;;;;;;34.63;32.23;;;10.40;99.90;;;;;;4996209;28;20584;-78
2022/01/03 01:45:42;;;;;;;40.00;37.63;;;10.30;99.90;;;;;;4997130;28;20986;-78
2022/01/03 01:48:12;;;;;;;48.43;45.33;;;10.30;99.90;;;;;;4995866;28;20590;-78
2022/01/03 01:50:41;;;;;;;38.00;34.73;;;10.30;99.90;;;;;;4977081;28;20459;-79
2022/01/03 01:53:08;;;;;;;36.60;34.20;;;10.20;99.90;;;;;;4976830;28;20475;-79
2022/01/03 01:55:39;;;;;;;49.70;46.30;;;10.20;99.90;;;;;;4977676;28;20462;-79
2022/01/03 01:58:21;;;;;;;42.30;38.70;;;10.10;99.90;;;;;;4976464;28;20966;-78
2022/01/03 02:00:56;;;;;;;39.93;37.00;;;10.10;99.90;;;;;;4976756;28;20457;-79
2022/01/03 02:03:32;;;;;;;42.47;39.93;;;10.20;99.90;;;;;;4976849;28;20510;-78
2022/01/03 02:06:23;;;;;;;37.90;35.20;;;10.20;99.90;;;;;;4976745;28;20459;-79
2022/01/03 02:08:59;;;;;;;47.70;44.80;;;10.20;99.90;;;;;;4980052;28;20461;-79
2022/01/03 02:11:39;;;;;;;49.77;46.57;;;10.10;99.90;;;;;;4996054;28;20459;-79
2022/01/03 02:14:05;;;;;;;50.77;48.07;;;10.10;99.90;;;;;;4995873;28;20482;-79
2022/01/03 02:16:33;;;;;;;52.53;49.23;;;10.10;99.90;;;;;;4995874;28;20493;-79
2022/01/03 02:19:00;;;;;;;27.97;24.50;;;10.00;99.90;;;;;;4995168;28;20457;-79
2022/01/03 02:21:28;;;;;;;33.00;30.57;;;10.20;99.90;;;;;;4995809;28;20820;-79
2022/01/03 02:23:55;;;;;;;33.40;30.70;;;10.30;99.90;;;;;;4995248;28;20485;-79
2022/01/03 02:26:21;;;;;;;47.70;44.10;;;10.10;99.90;;;;;;4995652;28;20462;-79
2022/01/03 02:28:48;;;;;;;47.27;44.77;;;10.10;99.90;;;;;;4994601;28;20449;-78
2022/01/03 02:31:17;;;;;;;59.53;55.83;;;10.00;99.90;;;;;;4995436;28;20462;-80
2022/01/03 02:33:44;;;;;;;61.47;58.17;;;9.90;99.90;;;;;;4995175;28;20929;-78
2022/01/03 02:36:11;;;;;;;57.13;53.87;;;10.00;99.90;;;;;;4995610;28;20458;-79
2022/01/03 02:38:39;;;;;;;43.80;40.93;;;10.10;99.90;;;;;;4995504;28;20465;-79
2022/01/03 02:41:05;;;;;;;47.97;45.57;;;10.20;99.90;;;;;;4995384;28;20462;-79
2022/01/03 02:43:35;;;;;;;31.90;29.50;;;10.10;99.90;;;;;;4994747;28;20490;-78
2022/01/03 02:46:03;;;;;;;26.63;24.53;;;10.20;99.90;;;;;;4995594;28;20470;-79
2022/01/03 02:48:30;;;;;;;27.53;25.13;;;10.20;99.90;;;;;;4994817;28;20457;-79
2022/01/03 02:50:57;;;;;;;29.93;27.67;;;10.10;99.90;;;;;;4995438;28;20465;-79
2022/01/03 02:53:24;;;;;;;31.60;28.70;;;10.10;99.90;;;;;;4995110;28;20480;-79
2022/01/03 02:55:52;;;;;;;24.63;22.40;;;10.10;99.90;;;;;;4994781;28;20476;-77
2022/01/03 02:58:19;;;;;;;23.73;21.60;;;10.10;99.90;;;;;;4995723;28;20450;-79
2022/01/03 03:00:49;;;;;;;34.70;31.40;;;10.10;99.90;;;;;;4995936;28;20450;-79
2022/01/03 03:03:17;;;;;;;34.60;28.50;;;10.00;99.90;;;;;;4995409;28;20486;-79
2022/01/03 03:05:45;;;;;;;36.43;33.80;;;10.00;99.90;;;;;;4996570;28;20815;-79
2022/01/03 03:08:14;;;;;;;36.60;34.60;;;9.90;99.90;;;;;;4995435;28;20513;-79
2022/01/03 03:10:41;;;;;;;43.30;40.70;;;9.90;99.90;;;;;;4995697;28;20453;-79
2022/01/03 03:13:10;;;;;;;53.33;49.67;;;9.70;99.90;;;;;;5029591;22;21426;-80
2022/01/03 03:15:37;;;;;;;64.07;60.07;;;9.80;99.90;;;;;;5035096;28;20453;-80
2022/01/03 03:18:04;;;;;;;55.87;52.60;;;9.70;99.90;;;;;;5034130;28;20449;-83
2022/01/03 03:20:33;;;;;;;73.67;70.17;;;9.80;99.90;;;;;;5035019;28;20459;-80
2022/01/03 03:23:01;;;;;;;67.17;63.97;;;9.70;99.90;;;;;;5034141;28;20857;-82
2022/01/03 03:25:29;;;;;;;64.90;61.53;;;9.80;99.90;;;;;;5034852;28;20456;-80
2022/01/03 03:28:00;;;;;;;63.20;59.97;;;9.80;99.90;;;;;;5035157;28;20452;-80
2022/01/03 03:30:29;;;;;;;75.60;71.70;;;9.70;99.90;;;;;;5034500;28;20869;-80
2022/01/03 03:33:03;;;;;;;72.60;69.03;;;9.60;99.90;;;;;;5034586;28;20476;-81
2022/01/03 03:35:30;;;;;;;60.97;57.83;;;9.60;99.90;;;;;;5034986;28;20460;-80
2022/01/03 03:37:56;;;;;;;61.30;58.23;;;9.70;99.90;;;;;;5035176;28;20459;-80
2022/01/03 03:40:23;;;;;;;60.97;57.67;;;9.70;99.90;;;;;;5034339;28;20458;-83
2022/01/03 03:42:50;;;;;;;56.20;52.80;;;9.70;99.90;;;;;;5033759;28;20483;-80
2022/01/03 03:45:17;;;;;;;67.37;62.90;;;9.60;99.90;;;;;;5034086;28;20449;-80
2022/01/03 03:47:45;;;;;;;58.27;55.13;;;9.60;99.90;;;;;;5035278;28;20567;-81
2022/01/03 03:50:13;;;;;;;49.70;46.30;;;9.70;99.90;;;;;;5037883;28;20455;-80
2022/01/03 03:52:39;;;;;;;36.30;33.57;;;9.80;99.90;;;;;;5037568;28;20819;-80
2022/01/03 03:55:08;;;;;;;35.53;32.93;;;9.90;99.90;;;;;;5037785;28;20456;-81
2022/01/03 03:57:35;;;;;;;34.03;31.43;;;9.90;99.90;;;;;;5038049;28;20456;-81
2022/01/03 04:00:02;;;;;;;26.03;24.07;;;10.00;99.90;;;;;;5037738;28;20459;-81
2022/01/03 04:02:28;;;;;;;23.40;21.40;;;10.00;99.90;;;;;;5037646;28;20499;-81
2022/01/03 04:04:57;;;;;;;21.43;19.30;;;10.10;99.90;;;;;;5037599;28;20456;-82
2022/01/03 04:07:23;;;;;;;16.33;14.20;;;10.10;99.90;;;;;;5037520;28;20452;-81
2022/01/03 04:09:50;;;;;;;13.00;11.90;;;10.10;99.90;;;;;;5037718;28;20458;-81
2022/01/03 04:12:17;;;;;;;8.90;8.20;;;10.10;99.90;;;;;;5037648;28;20456;-82
2022/01/03 04:14:44;;;;;;;20.90;8.40;;;10.20;99.90;;;;;;5037318;28;20484;-81
2022/01/03 04:17:12;;;;;;;18.40;8.10;;;10.20;99.90;;;;;;5036995;28;20458;-81
2022/01/03 04:19:38;;;;;;;12.50;9.40;;;10.10;99.90;;;;;;5037473;28;20965;-81
2022/01/03 04:22:07;;;;;;;14.37;7.90;;;10.00;99.90;;;;;;5037455;28;20452;-83
2022/01/03 04:24:34;;;;;;;14.70;8.67;;;10.00;99.90;;;;;;5037862;28;20472;-82
2022/01/03 04:27:00;;;;;;;18.40;6.97;;;10.00;99.90;;;;;;5037275;28;20456;-81
2022/01/03 04:29:27;;;;;;;16.00;7.10;;;10.00;99.90;;;;;;5036684;28;20448;-81
2022/01/03 04:31:54;;;;;;;10.87;8.53;;;10.00;99.90;;;;;;5037231;28;20455;-83
2022/01/03 04:34:21;;;;;;;11.07;8.27;;;9.90;99.90;;;;;;5037430;28;20586;-81
2022/01/03 04:36:48;;;;;;;15.73;8.20;;;9.80;99.90;;;;;;5037645;28;20447;-81
2022/01/03 04:39:16;;;;;;;20.50;8.40;;;9.80;99.90;;;;;;5037054;28;20452;-82
2022/01/03 04:41:42;;;;;;;16.73;8.23;;;9.80;99.90;;;;;;5037613;28;20474;-83
2022/01/03 04:44:09;;;;;;;12.57;6.47;;;9.90;99.90;;;;;;5037084;28;20480;-81
2022/01/03 04:46:37;;;;;;;23.57;7.30;;;9.90;99.90;;;;;;5037485;28;20459;-81
2022/01/03 04:49:04;;;;;;;10.93;7.20;;;9.90;99.90;;;;;;5037027;28;20452;-81
2022/01/03 04:51:31;;;;;;;13.60;9.13;;;9.80;99.90;;;;;;5037760;28;20459;-82
2022/01/03 04:54:01;;;;;;;23.07;9.63;;;9.80;99.90;;;;;;5039994;28;20468;-85
2022/01/03 04:56:29;;;;;;;14.13;8.90;;;9.70;99.90;;;;;;5038509;28;20461;-81
2022/01/03 04:58:56;;;;;;;13.00;8.40;;;9.80;99.90;;;;;;5035152;28;20453;-80
2022/01/03 05:01:23;;;;;;;17.00;6.90;;;9.80;99.90;;;;;;5038589;28;20460;-81
2022/01/03 05:03:50;;;;;;;11.10;8.40;;;9.90;99.90;;;;;;5039062;28;21003;-81
2022/01/03 05:06:17;;;;;;;21.40;10.07;;;9.70;99.90;;;;;;5035145;28;20463;-80
2022/01/03 05:08:44;;;;;;;18.13;10.53;;;9.60;99.90;;;;;;5049201;28;20455;-81
2022/01/03 05:11:11;;;;;;;12.17;9.00;;;9.70;99.90;;;;;;5055684;28;20935;-81
2022/01/03 05:13:40;;;;;;;14.17;10.40;;;9.80;99.90;;;;;;5036056;28;20476;-81
2022/01/03 05:16:07;;;;;;;13.83;11.53;;;9.70;99.90;;;;;;5036443;28;20883;-81
2022/01/03 05:18:34;;;;;;;18.07;11.20;;;9.70;99.90;;;;;;5037017;28;20462;-82
2022/01/03 05:21:01;;;;;;;20.07;13.93;;;9.60;99.90;;;;;;5038197;28;20463;-81
2022/01/03 05:23:28;;;;;;;20.70;13.67;;;9.60;99.90;;;;;;5039477;28;20996;-81
2022/01/03 05:25:55;;;;;;;22.27;16.10;;;9.70;99.90;;;;;;5036817;28;20986;-83
2022/01/03 05:28:21;;;;;;;18.57;15.30;;;9.60;99.90;;;;;;5046233;28;20458;-81
2022/01/03 05:30:49;;;;;;;15.17;10.70;;;9.70;99.90;;;;;;5055163;28;20964;-80
2022/01/03 05:33:16;;;;;;;26.50;12.77;;;9.70;99.90;;;;;;5045205;28;20465;-84
2022/01/03 05:35:43;;;;;;;18.57;11.93;;;9.70;99.90;;;;;;5034998;28;20948;-81
2022/01/03 05:38:10;;;;;;;16.60;11.27;;;9.90;99.90;;;;;;5034291;28;20452;-83
2022/01/03 05:40:36;;;;;;;14.90;10.60;;;10.00;99.90;;;;;;5037886;28;20970;-81
2022/01/03 05:43:03;;;;;;;20.17;10.37;;;10.00;99.90;;;;;;5035594;28;20476;-81
2022/01/03 05:45:30;;;;;;;17.37;8.30;;;10.10;99.90;;;;;;5036225;28;20456;-81
2022/01/03 05:47:58;;;;;;;14.43;7.23;;;10.10;99.90;;;;;;5036088;28;20985;-81
2022/01/03 05:50:25;;;;;;;20.73;7.57;;;10.00;99.90;;;;;;5035337;28;20807;-81
2022/01/03 05:52:52;;;;;;;18.77;9.00;;;10.10;99.90;;;;;;5035458;28;20472;-81
2022/01/03 05:55:20;;;;;;;11.23;7.87;;;10.10;99.90;;;;;;5036139;28;20456;-81
2022/01/03 05:57:47;;;;;;;26.43;8.40;;;10.00;99.90;;;;;;5035864;28;20453;-81
2022/01/03 06:00:17;;;;;;;14.17;7.30;;;10.10;99.90;;;;;;5035570;28;20452;-81
2022/01/03 06:02:44;;;;;;;18.30;7.30;;;10.20;99.90;;;;;;5035877;28;20583;-81
2022/01/03 06:05:20;;;;;;;26.53;8.43;;;10.20;99.90;;;;;;5035370;28;20453;-80
2022/01/03 06:07:47;;;;;;;17.33;6.77;;;10.30;99.90;;;;;;5035279;28;20452;-81
2022/01/03 06:10:17;;;;;;;15.10;6.20;;;10.30;99.90;;;;;;5034643;28;20464;-81
2022/01/03 06:12:45;;;;;;;26.10;7.97;;;10.30;99.90;;;;;;5043362;28;20953;-82
2022/01/03 06:15:14;;;;;;;17.73;7.90;;;10.20;99.90;;;;;;5055914;28;20839;-81
2022/01/03 06:17:41;;;;;;;17.37;6.20;;;10.00;99.90;;;;;;5039458;28;20456;-81
2022/01/03 06:20:09;;;;;;;13.03;7.00;;;9.90;99.90;;;;;;5034607;28;20448;-81
2022/01/03 06:22:39;;;;;;;13.70;8.03;;;9.90;99.90;;;;;;5034501;28;21025;-83
2022/01/03 06:25:06;;;;;;;20.90;9.93;;;9.80;99.90;;;;;;5035296;28;20479;-81
2022/01/03 06:27:33;;;;;;;30.17;10.70;;;9.80;99.90;;;;;;5033634;28;20453;-82
2022/01/03 06:30:00;;;;;;;17.60;10.77;;;9.80;99.90;;;;;;5035340;28;20829;-81
2022/01/03 06:32:27;;;;;;;12.30;11.10;;;9.80;99.90;;;;;;5034738;28;20996;-81
2022/01/03 06:34:54;;;;;;;28.63;13.10;;;9.80;99.90;;;;;;5035210;28;20452;-81
2022/01/03 06:37:20;;;;;;;19.00;11.03;;;9.80;99.90;;;;;;5035244;28;20945;-81
2022/01/03 06:39:48;;;;;;;14.63;10.13;;;9.80;99.90;;;;;;5034171;28;20460;-82
2022/01/03 06:42:16;;;;;;;17.60;11.20;;;9.90;99.90;;;;;;5037530;28;20452;-81
2022/01/03 06:44:45;;;;;;;25.33;14.03;;;9.80;99.90;;;;;;5041356;28;20831;-81
2022/01/03 06:47:12;;;;;;;24.23;11.53;;;9.70;99.90;;;;;;5040633;28;20464;-82
2022/01/03 06:49:38;;;;;;;16.40;11.37;;;9.90;99.90;;;;;;5039810;28;20463;-82
2022/01/03 06:52:06;;;;;;;22.67;13.63;;;9.80;99.90;;;;;;5041504;28;20448;-82
2022/01/03 06:54:33;;;;;;;19.87;13.67;;;9.80;99.90;;;;;;5037497;28;20880;-82
2022/01/03 06:57:01;;;;;;;21.17;14.63;;;9.80;99.90;;;;;;5035826;28;20539;-81
2022/01/03 06:59:28;;;;;;;20.83;16.83;;;9.80;99.90;;;;;;5034302;28;20452;-80
2022/01/03 07:01:55;;;;;;;21.67;19.73;;;9.80;99.90;;;;;;5033392;28;20483;-81
2022/01/03 07:04:22;;;;;;;26.80;24.07;;;9.80;99.90;;;;;;5027021;28;20486;-81
2022/01/03 07:06:48;;;;;;;54.07;50.87;;;9.90;99.90;;;;;;5035742;28;20497;-82
2022/01/03 07:09:15;;;;;;;66.67;63.07;;;9.70;99.90;;;;;;5032171;28;20455;-80
2022/01/03 07:11:42;;;;;;;72.17;68.10;;;9.70;99.90;;;;;;5034898;28;20460;-80
2022/01/03 07:19:36;;;;;;;67.90;64.40;;;9.60;99.90;;;;;;5036070;28;20582;-81
2022/01/03 07:22:04;;;;;;;74.00;70.10;;;9.70;99.90;;;;;;5032256;28;20938;-81
2022/01/03 07:24:32;;;;;;;318.23;305.77;;;9.70;99.90;;;;;;5033598;28;20248;-80
2022/01/03 07:27:01;;;;;;;488.97;470.67;;;9.10;99.90;;;;;;5032920;28;20475;-80
2022/01/03 07:29:29;;;;;;;508.90;488.53;;;8.90;99.90;;;;;;5033812;28;20461;-83
2022/01/03 07:31:56;;;;;;;596.03;571.23;;;8.70;99.90;;;;;;5033296;28;20460;-80
2022/01/03 07:34:22;;;;;;;657.20;628.13;;;8.70;99.90;;;;;;5034789;28;20465;-81
2022/01/03 07:36:49;;;;;;;657.97;629.30;;;8.50;99.90;;;;;;5035302;28;20463;-81
2022/01/03 07:39:16;;;;;;;696.20;663.43;;;8.50;99.90;;;;;;5034663;28;20456;-81
2022/01/03 07:41:43;;;;;;;717.90;681.40;;;8.50;99.90;;;;;;5034156;28;20457;-81
2022/01/03 07:44:09;;;;;;;719.03;681.17;;;8.40;99.90;;;;;;5033638;28;20483;-81
2022/01/03 07:46:38;;;;;;;719.87;682.93;;;8.40;99.90;;;;;;5033650;28;20467;-80
2022/01/03 07:49:05;;;;;;;718.37;679.80;;;8.50;99.90;;;;;;5033655;28;20457;-82
2022/01/03 07:51:32;;;;;;;717.73;679.83;;;8.60;99.90;;;;;;5033744;28;20460;-81
2022/01/03 07:53:59;;;;;;;741.93;701.13;;;8.60;99.90;;;;;;5033488;28;20469;-80
2022/01/03 07:56:26;;;;;;;726.33;686.43;;;8.70;99.90;;;;;;5033899;28;20456;-81
2022/01/03 07:58:53;;;;;;;737.33;693.47;;;8.80;99.90;;;;;;5033225;28;20463;-81
2022/01/03 08:01:19;;;;;;;708.23;669.30;;;9.00;99.90;;;;;;5033757;28;20479;-81
2022/01/03 08:03:47;;;;;;;670.33;637.10;;;9.10;99.90;;;;;;5033665;28;20484;-80
2022/01/03 08:06:14;;;;;;;675.53;641.90;;;9.20;99.90;;;;;;5034253;28;20448;-81
2022/01/03 08:08:41;;;;;;;698.37;662.53;;;9.30;99.90;;;;;;5034307;28;20456;-80
2022/01/03 08:11:08;;;;;;;700.23;664.70;;;9.30;99.90;;;;;;5033925;28;20456;-83
2022/01/03 08:13:35;;;;;;;700.73;665.23;;;9.40;99.90;;;;;;5033745;28;20480;-80
2022/01/03 08:16:01;;;;;;;719.70;680.80;;;9.30;99.90;;;;;;5034204;28;20452;-80
2022/01/03 08:18:28;;;;;;;736.07;695.40;;;9.30;99.90;;;;;;5033605;28;20875;-80
2022/01/03 08:20:56;;;;;;;747.40;703.40;;;9.40;99.90;;;;;;5033883;28;20547;-80
2022/01/03 08:23:23;;;;;;;744.17;699.80;;;9.40;99.90;;;;;;5033375;28;21082;-81
2022/01/03 08:25:50;;;;;;;712.87;674.90;;;9.40;99.90;;;;;;5034106;28;20463;-80
2022/01/03 08:28:17;;;;;;;707.93;670.20;;;9.50;99.90;;;;;;5033709;28;20838;-83
2022/01/03 08:30:43;;;;;;;691.03;655.40;;;9.60;99.90;;;;;;5034180;28;20957;-81
2022/01/03 08:33:10;;;;;;;715.23;678.00;;;9.60;99.90;;;;;;5035309;28;20472;-80
2022/01/03 08:35:37;;;;;;;709.17;671.73;;;9.70;99.90;;;;;;5037249;28;20460;-81
2022/01/03 08:38:05;;;;;;;700.40;664.73;;;9.70;99.90;;;;;;5037640;28;20453;-81
2022/01/03 08:40:32;;;;;;;676.20;643.47;;;9.80;99.90;;;;;;5037757;28;20463;-81
2022/01/03 08:42:59;;;;;;;720.80;682.60;;;9.80;99.90;;;;;;5037369;28;20472;-80
2022/01/03 08:45:27;;;;;;;734.87;694.47;;;9.70;99.90;;;;;;5037544;28;20602;-81
2022/01/03 08:47:53;;;;;;;711.30;673.50;;;9.80;99.90;;;;;;5037847;28;20978;-80
2022/01/03 08:50:20;;;;;;;699.03;663.43;;;9.70;99.90;;;;;;5036678;28;20460;-81
2022/01/03 08:52:47;;;;;;;638.07;607.63;;;9.80;99.90;;;;;;5037211;28;20519;-80
2022/01/03 08:55:16;;;;;;;581.37;556.13;;;9.90;99.90;;;;;;5037220;28;20448;-81
2022/01/03 08:57:44;;;;;;;505.47;484.67;;;9.90;99.90;;;;;;5036791;28;20452;-81
2022/01/03 09:00:12;;;;;;;465.67;447.97;;;9.90;99.90;;;;;;5036928;28;20456;-82
2022/01/03 09:02:38;;;;;;;371.33;357.63;;;10.00;99.90;;;;;;5037180;28;20458;-82
2022/01/03 09:05:06;;;;;;;342.00;329.40;;;10.00;99.90;;;;;;5036048;28;20472;-80
2022/01/03 09:07:32;;;;;;;251.83;243.40;;;10.10;99.90;;;;;;5036118;28;20451;-80
2022/01/03 09:09:59;;;;;;;209.00;200.23;;;10.00;99.90;;;;;;5036619;28;20586;-81
2022/01/03 09:12:27;;;;;;;156.50;149.40;;;10.10;99.90;;;;;;5036677;28;20834;-81
2022/01/03 09:14:54;;;;;;;118.83;113.00;;;10.10;99.90;;;;;;5038311;28;20464;-81
2022/01/03 09:17:21;;;;;;;69.90;66.30;;;10.10;99.90;;;;;;5036915;28;20528;-80
2022/01/03 09:19:48;;;;;;;25.90;20.77;;;10.20;99.90;;;;;;5036537;28;20456;-80
2022/01/03 09:22:18;;;;;;;19.87;16.37;;;10.30;99.90;;;;;;5037324;28;20459;-81
2022/01/03 09:24:52;;;;;;;19.70;17.93;;;10.30;99.90;;;;;;5036918;28;20480;-80
2022/01/03 09:30:08;;;;;;;15.97;6.83;;;10.40;99.90;;;;;;5036453;28;20458;-80
2022/01/03 09:32:35;;;;;;;16.27;8.17;;;10.50;99.90;;;;;;5035806;28;20944;-80
2022/01/03 09:35:02;;;;;;;21.63;8.50;;;10.70;99.90;;;;;;5035556;28;20452;-82
2022/01/03 09:37:29;;;;;;;15.73;7.70;;;10.70;99.90;;;;;;5035428;28;20462;-79
2022/01/03 09:39:55;;;;;;;16.73;6.00;;;10.80;99.90;;;;;;5034806;28;20455;-80
2022/01/03 09:42:24;;;;;;;14.53;5.60;;;10.80;99.90;;;;;;5034781;28;20452;-79
2022/01/03 09:44:51;;;;;;;18.33;7.63;;;10.90;99.90;;;;;;5034221;28;20487;-80
2022/01/03 09:47:21;;;;;;;10.80;3.93;;;11.00;99.90;;;;;;5035053;28;20546;-79
2022/01/03 09:49:50;;;;;;;15.87;7.20;;;11.10;99.90;;;;;;5034573;28;20460;-79
2022/01/03 09:52:20;;;;;;;23.17;8.57;;;11.30;99.90;;;;;;5035006;28;20452;-79
2022/01/03 09:54:47;;;;;;;15.23;5.70;;;11.30;99.90;;;;;;5034266;28;20469;-80
2022/01/03 09:57:14;;;;;;;15.50;6.40;;;11.50;99.90;;;;;;5034848;28;20456;-80
2022/01/03 09:59:42;;;;;;;10.73;3.40;;;11.40;99.90;;;;;;5034468;28;20456;-79
2022/01/03 10:02:10;;;;;;;17.53;5.93;;;11.20;99.90;;;;;;5034561;28;20464;-80
2022/01/03 10:04:38;;;;;;;14.53;4.17;;;11.20;99.90;;;;;;5034261;28;20483;-79
2022/01/03 10:07:08;;;;;;;18.67;4.07;;;11.20;99.90;;;;;;5034938;28;20460;-79
2022/01/03 10:09:35;;;;;;;13.77;4.63;;;11.20;99.90;;;;;;5034292;28;20452;-80
2022/01/03 10:12:02;;;;;;;19.87;4.10;;;11.20;99.90;;;;;;5034656;28;20452;-79
2022/01/03 10:14:29;;;;;;;26.20;4.40;;;11.30;99.90;;;;;;5033795;28;20480;-80
2022/01/03 10:16:56;;;;;;;11.67;3.80;;;11.30;99.90;;;;;;5034542;28;20981;-80
2022/01/03 10:19:22;;;;;;;20.77;3.90;;;11.40;99.80;;;;;;5034248;28;20452;-82
2022/01/03 10:21:51;;;;;;;16.67;5.07;;;11.40;99.20;;;;;;5034367;28;20463;-80
2022/01/03 10:24:30;;;;;;;18.20;3.97;;;11.40;99.90;;;;;;5034480;28;20472;-80
2022/01/03 10:26:57;;;;;;;19.67;5.20;;;11.50;99.80;;;;;;5034209;28;21075;-80
2022/01/03 10:29:26;;;;;;;14.83;4.10;;;11.50;98.20;;;;;;5034311;28;21021;-80
2022/01/03 10:31:57;;;;;;;15.00;4.20;;;11.60;98.60;;;;;;5034218;28;20535;-80
2022/01/03 10:34:25;;;;;;;12.13;4.23;;;11.70;99.40;;;;;;5033914;28;20472;-80
2022/01/03 10:36:55;;;;;;;16.40;4.30;;;11.70;98.30;;;;;;5034455;28;20543;-80
2022/01/03 10:39:25;;;;;;;17.23;3.50;;;11.70;98.80;;;;;;5033623;28;21003;-80
2022/01/03 10:41:54;;;;;;;10.93;4.00;;;11.70;99.40;;;;;;5033874;28;20459;-82
2022/01/03 10:44:32;;;;;;;12.53;3.30;;;11.60;99.40;;;;;;5034075;28;20481;-80
2022/01/03 10:47:04;;;;;;;14.50;4.20;;;11.70;99.90;;;;;;5034756;28;20452;-79
2022/01/03 10:49:32;;;;;;;22.50;4.70;;;11.60;99.70;;;;;;5042090;28;20452;-84
2022/01/03 10:52:16;;;;;;;23.10;6.67;;;11.60;99.90;;;;;;5042893;28;21019;-84
2022/01/03 10:54:45;;;;;;;24.40;5.80;;;11.50;99.90;;;;;;5037296;28;20480;-82
2022/01/03 10:57:13;;;;;;;16.20;5.17;;;11.40;99.90;;;;;;5023652;28;20465;-82
2022/01/03 10:59:40;;;;;;;14.93;4.43;;;11.50;99.90;;;;;;5024527;28;20461;-83
2022/01/03 11:02:13;;;;;;;13.30;3.90;;;11.60;99.90;;;;;;5025007;28;20512;-83
2022/01/03 11:04:47;;;;;;;13.93;4.10;;;11.80;99.90;;;;;;5023379;28;20488;-81
2022/01/03 11:13:10;;;;;;;14.53;3.90;;;12.10;97.90;;;;;;5023477;28;20483;-82
2022/01/03 11:15:39;;;;;;;16.83;4.40;;;12.00;98.10;;;;;;5023696;28;20457;-82
2022/01/03 11:18:14;;;;;;;9.63;3.70;;;12.00;98.40;;;;;;5023759;28;20461;-83
2022/01/03 11:20:42;;;;;;;14.20;4.00;;;12.00;97.30;;;;;;5024290;28;20440;-82
2022/01/03 11:23:11;;;;;;;15.93;2.77;;;12.00;98.10;;;;;;5023703;28;20473;-81
2022/01/03 11:25:37;;;;;;;15.10;4.37;;;12.00;97.10;;;;;;5023502;28;20572;-82
2022/01/03 11:28:05;;;;;;;18.57;3.80;;;12.00;97.70;;;;;;5023197;28;20461;-82
2022/01/03 11:30:33;;;;;;;12.30;3.63;;;12.00;97.20;;;;;;5023769;28;21007;-82
2022/01/03 11:33:01;;;;;;;15.73;3.30;;;12.00;97.10;;;;;;5024535;28;20473;-82
2022/01/03 11:35:28;;;;;;;9.80;3.40;;;12.00;96.90;;;;;;5023853;28;20453;-82
2022/01/03 11:37:57;;;;;;;12.60;3.47;;;11.90;97.40;;;;;;5023680;28;20464;-82
2022/01/03 11:40:26;;;;;;;16.48;4.95;;;11.90;98.40;;;;;;5022105;28;20477;-82
2022/01/03 11:42:54;;;;;;;12.40;5.20;;;11.80;98.00;;;;;;5021328;28;20240;-82
2022/01/03 11:45:21;;;;;;;16.50;4.00;;;11.90;97.80;;;;;;5023671;28;20509;-82
2022/01/03 11:47:50;;;;;;;12.43;3.60;;;11.80;98.20;;;;;;5024181;28;21008;-83
2022/01/03 11:50:17;;;;;;;10.03;3.40;;;11.60;97.70;;;;;;5041768;28;20484;-82
2022/01/03 11:52:45;;;;;;;25.17;6.07;;;11.50;98.20;;;;;;5042823;28;20452;-82
2022/01/03 11:55:14;;;;;;;18.70;5.30;;;11.50;98.80;;;;;;5041944;28;20480;-81
2022/01/03 11:58:14;;;;;;;12.40;4.83;;;11.40;99.90;;;;;;5042790;28;20460;-83
2022/01/03 12:04:00;;;;;;;14.77;4.40;;;11.50;99.90;;;;;;5043643;28;20467;-82
2022/01/03 12:06:30;;;;;;;9.87;4.10;;;11.50;99.90;;;;;;5043124;28;20551;-81
2022/01/03 12:08:59;;;;;;;10.83;4.60;;;11.40;99.90;;;;;;5045306;28;20463;-81
2022/01/03 12:11:28;;;;;;;17.33;5.63;;;11.40;99.90;;;;;;5047629;28;20479;-82
2022/01/03 12:13:59;;;;;;;21.23;5.40;;;11.40;99.60;;;;;;5046489;28;20928;-83
2022/01/03 12:16:41;;;;;;;14.93;4.30;;;11.40;99.90;;;;;;5047145;28;20459;-83
2022/01/03 12:19:10;;;;;;;10.43;4.70;;;11.40;99.70;;;;;;5047387;28;20459;-83
2022/01/03 12:21:53;;;;;;;15.03;5.20;;;11.40;99.90;;;;;;5047127;28;20459;-82
2022/01/03 12:24:43;;;;;;;22.53;6.50;;;11.40;99.90;;;;;;5047197;28;20551;-81
2022/01/03 12:27:28;;;;;;;16.60;5.50;;;11.30;99.90;;;;;;5047324;28;20466;-81
2022/01/03 12:30:29;;;;;;;18.13;10.50;;;11.20;99.90;;;;;;5046057;28;20506;-82
2022/01/03 12:33:17;;;;;;;39.50;37.03;;;10.80;99.90;;;;;;5045914;28;20480;-83
2022/01/03 12:35:49;;;;;;;88.30;82.53;;;10.30;99.90;;;;;;5047079;28;20491;-82
2022/01/03 12:38:29;;;;;;;150.37;144.43;;;9.90;99.90;;;;;;5045778;28;20452;-82
2022/01/03 12:41:01;;;;;;;380.03;365.93;;;9.50;99.90;;;;;;5045684;28;20460;-81
2022/01/03 12:43:43;;;;;;;306.33;295.93;;;9.40;99.90;;;;;;5044608;28;20475;-82
2022/01/03 12:46:18;;;;;;;427.50;412.47;;;9.30;99.90;;;;;;5044871;28;20471;-82
2022/01/03 12:48:47;;;;;;;491.70;472.10;;;9.10;99.90;;;;;;5045050;28;20467;-83
2022/01/03 12:51:17;;;;;;;523.57;502.87;;;9.00;99.90;;;;;;5046147;28;20519;-82
2022/01/03 12:53:56;;;;;;;603.17;574.77;;;9.20;99.90;;;;;;5044883;28;20476;-83
2022/01/03 12:56:35;;;;;;;664.13;624.23;;;9.10;99.90;;;;;;5044641;28;20448;-81